Altoona, Wisconsin
Current Conditions -  °F | °C
As of 10:56 PM on Friday 31 Oct 2014 (Local Time) from KEAU Reporting Station
Clear Clear  
Wind Chill: 20°   Ceiling: Unl
Heat Index: 20°   Visibility: 10mi
Dew Point: 16°   Wind: 0mph
Humidity: 85%   Direction: NA
Pressure: 30.48"   Gusts: NA
Location:  44.81°N, 91.43°W
Report Text: KEAU 010356Z AUTO 00000KT 10SM CLR M07/M09 A3048 RMK AO2 SLP336 T10671089
Loading
Personal Weather Stations






























Interactive Weather Map
Tropical Storm Tracking
New forecast layout! Learn more

10-Day Weather Forecast

Advertisements
Track Severe Weather on mobile